sensor_id;sensor_type;location;lat;lon;timestamp;temperature;humidity
22623;DHT22;11478;51.094;7.030;2023-01-20T00:01:28;0.20;99.90
22623;DHT22;11478;51.094;7.030;2023-01-20T00:03:55;0.20;99.90
22623;DHT22;11478;51.094;7.030;2023-01-20T00:06:22;0.10;99.90
22623;DHT22;11478;51.094;7.030;2023-01-20T00:08:57;0.10;99.90
22623;DHT22;11478;51.094;7.030;2023-01-20T00:11:23;0.20;99.90
22623;DHT22;11478;51.094;7.030;2023-01-20T00:13:54;0.20;99.90
22623;DHT22;11478;51.094;7.030;2023-01-20T00:16:21;0.20;99.90
22623;DHT22;11478;51.094;7.030;2023-01-20T00:18:47;0.10;99.90
22623;DHT22;11478;51.094;7.030;2023-01-20T00:21:13;0.10;99.90
22623;DHT22;11478;51.094;7.030;2023-01-20T00:23:41;0.10;99.90
22623;DHT22;11478;51.094;7.030;2023-01-20T00:26:11;0.10;99.90
22623;DHT22;11478;51.094;7.030;2023-01-20T00:28:38;0.10;99.90
22623;DHT22;11478;51.094;7.030;2023-01-20T00:31:23;0.00;99.90
22623;DHT22;11478;51.094;7.030;2023-01-20T00:33:50;0.00;99.90
22623;DHT22;11478;51.094;7.030;2023-01-20T00:36:18;0.00;99.90
22623;DHT22;11478;51.094;7.030;2023-01-20T00:38:45;0.00;99.90
22623;DHT22;11478;51.094;7.030;2023-01-20T00:41:15;0.00;99.90
22623;DHT22;11478;51.094;7.030;2023-01-20T00:43:42;0.00;99.90
22623;DHT22;11478;51.094;7.030;2023-01-20T00:46:12;0.00;99.90
22623;DHT22;11478;51.094;7.030;2023-01-20T00:48:38;0.00;99.90
22623;DHT22;11478;51.094;7.030;2023-01-20T00:51:13;0.00;99.90
22623;DHT22;11478;51.094;7.030;2023-01-20T00:53:40;0.00;99.90
22623;DHT22;11478;51.094;7.030;2023-01-20T01:02:50;0.10;99.90
22623;DHT22;11478;51.094;7.030;2023-01-20T01:05:15;0.10;99.90
22623;DHT22;11478;51.094;7.030;2023-01-20T01:07:41;0.20;99.90
22623;DHT22;11478;51.094;7.030;2023-01-20T01:10:09;0.20;99.90
22623;DHT22;11478;51.094;7.030;2023-01-20T01:12:35;0.20;99.90
22623;DHT22;11478;51.094;7.030;2023-01-20T01:15:00;0.20;99.90
22623;DHT22;11478;51.094;7.030;2023-01-20T01:17:27;0.30;99.90
22623;DHT22;11478;51.094;7.030;2023-01-20T01:19:53;0.30;99.90
22623;DHT22;11478;51.094;7.030;2023-01-20T01:22:20;0.30;99.90
22623;DHT22;11478;51.094;7.030;2023-01-20T01:24:48;0.30;99.90
22623;DHT22;11478;51.094;7.030;2023-01-20T01:27:14;0.30;99.90
22623;DHT22;11478;51.094;7.030;2023-01-20T01:29:41;0.30;99.90
22623;DHT22;11478;51.094;7.030;2023-01-20T01:32:06;0.30;99.90
22623;DHT22;11478;51.094;7.030;2023-01-20T01:34:33;0.40;99.90
22623;DHT22;11478;51.094;7.030;2023-01-20T01:36:59;0.40;99.90
22623;DHT22;11478;51.094;7.030;2023-01-20T01:39:36;0.40;99.90
22623;DHT22;11478;51.094;7.030;2023-01-20T01:42:01;0.40;99.90
22623;DHT22;11478;51.094;7.030;2023-01-20T01:44:29;0.40;99.90
22623;DHT22;11478;51.094;7.030;2023-01-20T01:46:56;0.40;99.90
22623;DHT22;11478;51.094;7.030;2023-01-20T01:49:25;0.40;99.90
22623;DHT22;11478;51.094;7.030;2023-01-20T01:52:03;0.40;99.90
22623;DHT22;11478;51.094;7.030;2023-01-20T01:54:36;0.40;99.90
22623;DHT22;11478;51.094;7.030;2023-01-20T01:57:05;0.40;99.90
22623;DHT22;11478;51.094;7.030;2023-01-20T01:59:36;0.50;99.90
22623;DHT22;11478;51.094;7.030;2023-01-20T02:02:02;0.50;99.90
22623;DHT22;11478;51.094;7.030;2023-01-20T02:04:45;0.50;99.90
22623;DHT22;11478;51.094;7.030;2023-01-20T02:07:15;0.50;99.90
22623;DHT22;11478;51.094;7.030;2023-01-20T02:09:46;0.50;99.90
22623;DHT22;11478;51.094;7.030;2023-01-20T02:12:14;0.50;99.90
22623;DHT22;11478;51.094;7.030;2023-01-20T02:14:53;0.50;99.90
22623;DHT22;11478;51.094;7.030;2023-01-20T02:17:30;0.50;99.90
22623;DHT22;11478;51.094;7.030;2023-01-20T02:33:26;0.60;99.90
22623;DHT22;11478;51.094;7.030;2023-01-20T02:36:10;0.60;99.90
22623;DHT22;11478;51.094;7.030;2023-01-20T02:38:59;0.50;99.90
22623;DHT22;11478;51.094;7.030;2023-01-20T02:44:41;0.50;99.90
22623;DHT22;11478;51.094;7.030;2023-01-20T02:47:23;0.50;99.90
22623;DHT22;11478;51.094;7.030;2023-01-20T02:50:15;0.50;99.90
22623;DHT22;11478;51.094;7.030;2023-01-20T02:52:57;0.60;99.90
22623;DHT22;11478;51.094;7.030;2023-01-20T02:55:43;0.60;99.90
22623;DHT22;11478;51.094;7.030;2023-01-20T02:58:16;0.50;99.90
22623;DHT22;11478;51.094;7.030;2023-01-20T03:01:16;0.60;99.90
22623;DHT22;11478;51.094;7.030;2023-01-20T03:03:44;0.60;99.90
22623;DHT22;11478;51.094;7.030;2023-01-20T03:06:18;0.60;99.90
22623;DHT22;11478;51.094;7.030;2023-01-20T03:08:47;0.60;99.90
22623;DHT22;11478;51.094;7.030;2023-01-20T03:11:16;0.60;99.90
22623;DHT22;11478;51.094;7.030;2023-01-20T03:13:59;0.60;99.90
22623;DHT22;11478;51.094;7.030;2023-01-20T03:16:31;0.60;99.90
22623;DHT22;11478;51.094;7.030;2023-01-20T03:18:59;0.60;99.90
22623;DHT22;11478;51.094;7.030;2023-01-20T03:21:24;0.50;99.90
22623;DHT22;11478;51.094;7.030;2023-01-20T03:23:56;0.50;99.90
22623;DHT22;11478;51.094;7.030;2023-01-20T03:26:24;0.50;99.90
22623;DHT22;11478;51.094;7.030;2023-01-20T03:28:51;0.50;99.90
22623;DHT22;11478;51.094;7.030;2023-01-20T03:31:21;0.50;99.90
22623;DHT22;11478;51.094;7.030;2023-01-20T03:33:50;0.60;99.90
22623;DHT22;11478;51.094;7.030;2023-01-20T03:36:17;0.60;99.90
22623;DHT22;11478;51.094;7.030;2023-01-20T03:38:50;0.60;99.90
22623;DHT22;11478;51.094;7.030;2023-01-20T03:44:11;0.60;99.90
22623;DHT22;11478;51.094;7.030;2023-01-20T03:49:34;0.60;99.90
22623;DHT22;11478;51.094;7.030;2023-01-20T03:55:05;0.60;99.90
22623;DHT22;11478;51.094;7.030;2023-01-20T04:00:20;0.60;99.90
22623;DHT22;11478;51.094;7.030;2023-01-20T04:02:48;0.60;99.90
22623;DHT22;11478;51.094;7.030;2023-01-20T04:05:15;0.60;99.90
22623;DHT22;11478;51.094;7.030;2023-01-20T04:07:42;0.60;99.90
22623;DHT22;11478;51.094;7.030;2023-01-20T04:10:12;0.60;99.90
22623;DHT22;11478;51.094;7.030;2023-01-20T04:12:42;0.60;99.90
22623;DHT22;11478;51.094;7.030;2023-01-20T04:15:08;0.60;99.90
22623;DHT22;11478;51.094;7.030;2023-01-20T04:17:37;0.60;99.90
22623;DHT22;11478;51.094;7.030;2023-01-20T04:20:09;0.60;99.90
22623;DHT22;11478;51.094;7.030;2023-01-20T04:22:53;0.60;99.90
22623;DHT22;11478;51.094;7.030;2023-01-20T04:25:31;0.60;99.90
22623;DHT22;11478;51.094;7.030;2023-01-20T04:27:57;0.60;99.90
22623;DHT22;11478;51.094;7.030;2023-01-20T04:30:25;0.60;99.90
22623;DHT22;11478;51.094;7.030;2023-01-20T04:32:51;0.60;99.90
22623;DHT22;11478;51.094;7.030;2023-01-20T04:35:19;0.60;99.90
22623;DHT22;11478;51.094;7.030;2023-01-20T04:37:45;0.60;99.90
22623;DHT22;11478;51.094;7.030;2023-01-20T04:40:20;0.60;99.90
22623;DHT22;11478;51.094;7.030;2023-01-20T04:42:46;0.60;99.90
22623;DHT22;11478;51.094;7.030;2023-01-20T04:45:16;0.60;99.90
22623;DHT22;11478;51.094;7.030;2023-01-20T04:47:42;0.60;99.90
22623;DHT22;11478;51.094;7.030;2023-01-20T04:50:12;0.60;99.90
22623;DHT22;11478;51.094;7.030;2023-01-20T04:52:38;0.60;99.90
22623;DHT22;11478;51.094;7.030;2023-01-20T04:55:06;0.60;99.90
22623;DHT22;11478;51.094;7.030;2023-01-20T04:57:32;0.60;99.90
22623;DHT22;11478;51.094;7.030;2023-01-20T05:00:05;0.60;99.90
22623;DHT22;11478;51.094;7.030;2023-01-20T05:02:31;0.60;99.90
22623;DHT22;11478;51.094;7.030;2023-01-20T05:04:57;0.60;99.90
22623;DHT22;11478;51.094;7.030;2023-01-20T05:07:23;0.60;99.90
22623;DHT22;11478;51.094;7.030;2023-01-20T05:09:52;0.60;99.90
22623;DHT22;11478;51.094;7.030;2023-01-20T05:12:18;0.60;99.90
22623;DHT22;11478;51.094;7.030;2023-01-20T05:14:50;0.60;99.90
22623;DHT22;11478;51.094;7.030;2023-01-20T05:17:16;0.60;99.90
22623;DHT22;11478;51.094;7.030;2023-01-20T05:19:42;0.60;99.90
22623;DHT22;11478;51.094;7.030;2023-01-20T05:22:12;0.60;99.90
22623;DHT22;11478;51.094;7.030;2023-01-20T05:24:40;0.60;99.90
22623;DHT22;11478;51.094;7.030;2023-01-20T05:27:13;0.50;99.90
22623;DHT22;11478;51.094;7.030;2023-01-20T05:29:39;0.60;99.90
22623;DHT22;11478;51.094;7.030;2023-01-20T05:32:45;0.60;99.90
22623;DHT22;11478;51.094;7.030;2023-01-20T05:35:13;0.60;99.90
22623;DHT22;11478;51.094;7.030;2023-01-20T05:37:39;0.60;99.90
22623;DHT22;11478;51.094;7.030;2023-01-20T05:40:05;0.60;99.90
22623;DHT22;11478;51.094;7.030;2023-01-20T05:42:40;0.60;99.90
22623;DHT22;11478;51.094;7.030;2023-01-20T05:45:06;0.60;99.90
22623;DHT22;11478;51.094;7.030;2023-01-20T05:47:33;0.60;99.90
22623;DHT22;11478;51.094;7.030;2023-01-20T05:49:59;0.60;99.90
22623;DHT22;11478;51.094;7.030;2023-01-20T05:52:28;0.60;99.90
22623;DHT22;11478;51.094;7.030;2023-01-20T05:54:54;0.60;99.90
22623;DHT22;11478;51.094;7.030;2023-01-20T05:57:25;0.60;99.90
22623;DHT22;11478;51.094;7.030;2023-01-20T05:59:51;0.60;99.90
22623;DHT22;11478;51.094;7.030;2023-01-20T06:02:22;0.60;99.90
22623;DHT22;11478;51.094;7.030;2023-01-20T06:04:48;0.60;99.90
22623;DHT22;11478;51.094;7.030;2023-01-20T06:07:19;0.60;99.90
22623;DHT22;11478;51.094;7.030;2023-01-20T06:09:45;0.60;99.90
22623;DHT22;11478;51.094;7.030;2023-01-20T06:12:12;0.60;99.90
22623;DHT22;11478;51.094;7.030;2023-01-20T06:14:38;0.60;99.90
22623;DHT22;11478;51.094;7.030;2023-01-20T06:17:04;0.60;99.90
22623;DHT22;11478;51.094;7.030;2023-01-20T06:19:35;0.60;99.90
22623;DHT22;11478;51.094;7.030;2023-01-20T06:22:19;0.60;99.90
22623;DHT22;11478;51.094;7.030;2023-01-20T06:24:46;0.70;99.90
22623;DHT22;11478;51.094;7.030;2023-01-20T06:27:15;0.70;99.90
22623;DHT22;11478;51.094;7.030;2023-01-20T06:29:40;0.70;99.90
22623;DHT22;11478;51.094;7.030;2023-01-20T06:32:09;0.70;99.90
22623;DHT22;11478;51.094;7.030;2023-01-20T06:34:35;0.70;99.90
22623;DHT22;11478;51.094;7.030;2023-01-20T06:37:06;0.70;99.90
22623;DHT22;11478;51.094;7.030;2023-01-20T06:39:32;0.80;99.90
22623;DHT22;11478;51.094;7.030;2023-01-20T06:42:18;0.80;99.90
22623;DHT22;11478;51.094;7.030;2023-01-20T06:44:44;0.70;99.90
22623;DHT22;11478;51.094;7.030;2023-01-20T06:47:09;0.70;99.90
22623;DHT22;11478;51.094;7.030;2023-01-20T06:49:35;0.70;99.90
22623;DHT22;11478;51.094;7.030;2023-01-20T06:52:05;0.70;99.90
22623;DHT22;11478;51.094;7.030;2023-01-20T06:54:31;0.70;99.90
22623;DHT22;11478;51.094;7.030;2023-01-20T06:57:00;0.70;99.90
22623;DHT22;11478;51.094;7.030;2023-01-20T06:59:27;0.70;99.90
22623;DHT22;11478;51.094;7.030;2023-01-20T07:01:55;0.70;99.90
22623;DHT22;11478;51.094;7.030;2023-01-20T07:04:38;0.70;99.90
22623;DHT22;11478;51.094;7.030;2023-01-20T07:07:09;0.70;99.90
22623;DHT22;11478;51.094;7.030;2023-01-20T07:09:35;0.70;99.90
22623;DHT22;11478;51.094;7.030;2023-01-20T07:12:01;0.70;99.90
22623;DHT22;11478;51.094;7.030;2023-01-20T07:14:27;0.70;99.90
22623;DHT22;11478;51.094;7.030;2023-01-20T07:16:54;0.70;99.90
22623;DHT22;11478;51.094;7.030;2023-01-20T07:19:20;0.70;99.90
22623;DHT22;11478;51.094;7.030;2023-01-20T07:21:46;0.70;99.90
22623;DHT22;11478;51.094;7.030;2023-01-20T07:24:12;0.60;99.90
22623;DHT22;11478;51.094;7.030;2023-01-20T07:26:38;0.70;99.90
22623;DHT22;11478;51.094;7.030;2023-01-20T07:29:04;0.70;99.90
22623;DHT22;11478;51.094;7.030;2023-01-20T07:31:31;0.70;99.90
22623;DHT22;11478;51.094;7.030;2023-01-20T07:34:02;0.70;99.90
22623;DHT22;11478;51.094;7.030;2023-01-20T07:36:27;0.70;99.90
22623;DHT22;11478;51.094;7.030;2023-01-20T07:38:58;0.70;99.90
22623;DHT22;11478;51.094;7.030;2023-01-20T07:41:24;0.60;99.90
22623;DHT22;11478;51.094;7.030;2023-01-20T07:43:51;0.60;99.90
22623;DHT22;11478;51.094;7.030;2023-01-20T07:46:19;0.60;99.90
22623;DHT22;11478;51.094;7.030;2023-01-20T07:48:46;0.60;99.90
22623;DHT22;11478;51.094;7.030;2023-01-20T07:51:13;0.70;99.90
22623;DHT22;11478;51.094;7.030;2023-01-20T07:53:41;0.60;99.90
22623;DHT22;11478;51.094;7.030;2023-01-20T07:56:21;0.60;99.90
22623;DHT22;11478;51.094;7.030;2023-01-20T07:58:51;0.60;99.90
22623;DHT22;11478;51.094;7.030;2023-01-20T08:01:22;0.60;99.90
22623;DHT22;11478;51.094;7.030;2023-01-20T08:03:49;0.60;99.90
22623;DHT22;11478;51.094;7.030;2023-01-20T08:06:18;0.60;99.90
22623;DHT22;11478;51.094;7.030;2023-01-20T08:08:45;0.60;99.90
22623;DHT22;11478;51.094;7.030;2023-01-20T08:11:13;0.60;99.90
22623;DHT22;11478;51.094;7.030;2023-01-20T08:13:53;0.60;99.90
22623;DHT22;11478;51.094;7.030;2023-01-20T08:16:19;0.60;99.90
22623;DHT22;11478;51.094;7.030;2023-01-20T08:18:46;0.70;99.90
22623;DHT22;11478;51.094;7.030;2023-01-20T08:21:31;0.70;99.90
22623;DHT22;11478;51.094;7.030;2023-01-20T08:23:59;0.70;99.90
22623;DHT22;11478;51.094;7.030;2023-01-20T08:26:27;0.70;99.90
22623;DHT22;11478;51.094;7.030;2023-01-20T08:28:55;0.80;99.90
22623;DHT22;11478;51.094;7.030;2023-01-20T08:31:23;0.80;99.90
22623;DHT22;11478;51.094;7.030;2023-01-20T08:33:53;0.80;99.90
22623;DHT22;11478;51.094;7.030;2023-01-20T08:36:27;0.80;99.90
22623;DHT22;11478;51.094;7.030;2023-01-20T08:38:56;0.80;99.90
22623;DHT22;11478;51.094;7.030;2023-01-20T08:41:27;0.80;99.90
22623;DHT22;11478;51.094;7.030;2023-01-20T08:43:54;0.80;99.90
22623;DHT22;11478;51.094;7.030;2023-01-20T08:46:21;0.80;99.90
22623;DHT22;11478;51.094;7.030;2023-01-20T08:48:48;0.80;99.90
22623;DHT22;11478;51.094;7.030;2023-01-20T08:51:17;0.80;99.90
22623;DHT22;11478;51.094;7.030;2023-01-20T08:53:44;0.80;99.90
22623;DHT22;11478;51.094;7.030;2023-01-20T08:56:11;0.80;99.90
22623;DHT22;11478;51.094;7.030;2023-01-20T08:58:38;0.80;99.90
22623;DHT22;11478;51.094;7.030;2023-01-20T09:01:27;0.80;99.90
22623;DHT22;11478;51.094;7.030;2023-01-20T09:03:53;0.80;99.90
22623;DHT22;11478;51.094;7.030;2023-01-20T09:06:20;0.80;99.90
22623;DHT22;11478;51.094;7.030;2023-01-20T09:08:50;0.80;99.90
22623;DHT22;11478;51.094;7.030;2023-01-20T09:11:20;0.90;99.90
22623;DHT22;11478;51.094;7.030;2023-01-20T09:13:46;0.90;99.90
22623;DHT22;11478;51.094;7.030;2023-01-20T09:16:14;1.00;99.90
22623;DHT22;11478;51.094;7.030;2023-01-20T09:18:41;1.10;99.90
22623;DHT22;11478;51.094;7.030;2023-01-20T09:21:07;1.10;99.90
22623;DHT22;11478;51.094;7.030;2023-01-20T09:23:36;1.20;99.90
22623;DHT22;11478;51.094;7.030;2023-01-20T09:26:04;1.20;99.90
22623;DHT22;11478;51.094;7.030;2023-01-20T09:28:32;1.20;99.90
22623;DHT22;11478;51.094;7.030;2023-01-20T09:34:02;1.20;99.90
22623;DHT22;11478;51.094;7.030;2023-01-20T09:36:28;1.20;99.90
22623;DHT22;11478;51.094;7.030;2023-01-20T09:39:34;1.20;99.90
22623;DHT22;11478;51.094;7.030;2023-01-20T09:46:07;1.30;99.90
22623;DHT22;11478;51.094;7.030;2023-01-20T09:55:51;1.40;99.90
22623;DHT22;11478;51.094;7.030;2023-01-20T09:58:34;1.40;99.90
22623;DHT22;11478;51.094;7.030;2023-01-20T10:01:47;1.40;99.90
22623;DHT22;11478;51.094;7.030;2023-01-20T10:04:12;1.50;99.90
22623;DHT22;11478;51.094;7.030;2023-01-20T10:15:36;1.70;99.90
22623;DHT22;11478;51.094;7.030;2023-01-20T10:25:59;2.00;99.90
22623;DHT22;11478;51.094;7.030;2023-01-20T10:28:43;2.00;99.90
22623;DHT22;11478;51.094;7.030;2023-01-20T10:31:13;2.00;99.90
22623;DHT22;11478;51.094;7.030;2023-01-20T10:33:44;1.90;99.90
22623;DHT22;11478;51.094;7.030;2023-01-20T10:36:36;1.80;99.90
22623;DHT22;11478;51.094;7.030;2023-01-20T10:42:03;1.70;99.90
22623;DHT22;11478;51.094;7.030;2023-01-20T10:44:58;1.70;99.90
22623;DHT22;11478;51.094;7.030;2023-01-20T10:50:14;1.70;99.90
22623;DHT22;11478;51.094;7.030;2023-01-20T10:58:44;1.70;99.90
22623;DHT22;11478;51.094;7.030;2023-01-20T11:01:14;1.80;99.90
22623;DHT22;11478;51.094;7.030;2023-01-20T11:03:43;1.90;99.90
22623;DHT22;11478;51.094;7.030;2023-01-20T11:06:21;1.80;99.90
22623;DHT22;11478;51.094;7.030;2023-01-20T11:09:19;1.80;99.90
22623;DHT22;11478;51.094;7.030;2023-01-20T11:11:48;1.80;99.90
22623;DHT22;11478;51.094;7.030;2023-01-20T11:14:14;1.90;99.90
22623;DHT22;11478;51.094;7.030;2023-01-20T11:16:41;1.90;99.90
22623;DHT22;11478;51.094;7.030;2023-01-20T11:19:11;1.90;99.90
22623;DHT22;11478;51.094;7.030;2023-01-20T11:21:37;1.80;99.90
22623;DHT22;11478;51.094;7.030;2023-01-20T11:24:35;1.80;99.90
22623;DHT22;11478;51.094;7.030;2023-01-20T11:27:30;1.80;99.90
22623;DHT22;11478;51.094;7.030;2023-01-20T11:36:44;1.80;99.90
22623;DHT22;11478;51.094;7.030;2023-01-20T11:39:34;1.80;99.90
22623;DHT22;11478;51.094;7.030;2023-01-20T11:42:27;1.90;99.90
22623;DHT22;11478;51.094;7.030;2023-01-20T11:45:00;1.90;99.90
22623;DHT22;11478;51.094;7.030;2023-01-20T11:47:36;2.00;99.90
22623;DHT22;11478;51.094;7.030;2023-01-20T11:52:50;2.00;99.90
22623;DHT22;11478;51.094;7.030;2023-01-20T11:55:20;2.10;99.90
22623;DHT22;11478;51.094;7.030;2023-01-20T11:58:02;2.10;99.90
22623;DHT22;11478;51.094;7.030;2023-01-20T12:00:40;2.20;99.90
22623;DHT22;11478;51.094;7.030;2023-01-20T12:09:10;2.20;99.90
22623;DHT22;11478;51.094;7.030;2023-01-20T12:15:21;2.20;99.90
22623;DHT22;11478;51.094;7.030;2023-01-20T12:28:19;2.20;99.90
22623;DHT22;11478;51.094;7.030;2023-01-20T12:33:30;2.10;99.90
22623;DHT22;11478;51.094;7.030;2023-01-20T12:47:48;2.10;99.90
22623;DHT22;11478;51.094;7.030;2023-01-20T13:18:22;1.90;99.90
22623;DHT22;11478;51.094;7.030;2023-01-20T13:21:13;1.90;99.90
22623;DHT22;11478;51.094;7.030;2023-01-20T13:23:44;1.90;99.90
22623;DHT22;11478;51.094;7.030;2023-01-20T13:26:15;1.90;99.90
22623;DHT22;11478;51.094;7.030;2023-01-20T13:28:53;1.90;99.90
22623;DHT22;11478;51.094;7.030;2023-01-20T13:31:49;2.00;99.90
22623;DHT22;11478;51.094;7.030;2023-01-20T13:39:57;1.90;99.90
22623;DHT22;11478;51.094;7.030;2023-01-20T13:45:38;1.90;99.90
22623;DHT22;11478;51.094;7.030;2023-01-20T13:56:31;1.90;99.90
22623;DHT22;11478;51.094;7.030;2023-01-20T13:59:10;1.90;99.90
22623;DHT22;11478;51.094;7.030;2023-01-20T14:01:36;1.90;99.90
22623;DHT22;11478;51.094;7.030;2023-01-20T14:09:54;1.90;99.90
22623;DHT22;11478;51.094;7.030;2023-01-20T14:12:23;1.90;99.90
22623;DHT22;11478;51.094;7.030;2023-01-20T14:14:53;1.90;99.90
22623;DHT22;11478;51.094;7.030;2023-01-20T14:17:22;1.80;99.90
22623;DHT22;11478;51.094;7.030;2023-01-20T14:20:20;1.80;99.90
22623;DHT22;11478;51.094;7.030;2023-01-20T14:22:48;1.80;99.90
22623;DHT22;11478;51.094;7.030;2023-01-20T14:25:42;1.80;99.90
22623;DHT22;11478;51.094;7.030;2023-01-20T14:34:30;1.70;99.90
22623;DHT22;11478;51.094;7.030;2023-01-20T14:43:55;1.70;99.90
22623;DHT22;11478;51.094;7.030;2023-01-20T14:46:27;1.70;99.90
22623;DHT22;11478;51.094;7.030;2023-01-20T14:52:45;1.70;99.90
22623;DHT22;11478;51.094;7.030;2023-01-20T15:02:04;1.60;99.90
22623;DHT22;11478;51.094;7.030;2023-01-20T15:04:42;1.60;99.90
22623;DHT22;11478;51.094;7.030;2023-01-20T15:07:16;1.60;99.90
22623;DHT22;11478;51.094;7.030;2023-01-20T15:09:50;1.60;99.90
22623;DHT22;11478;51.094;7.030;2023-01-20T15:15:16;1.50;99.90
22623;DHT22;11478;51.094;7.030;2023-01-20T15:20:39;1.50;99.90
22623;DHT22;11478;51.094;7.030;2023-01-20T15:23:30;1.50;99.90
22623;DHT22;11478;51.094;7.030;2023-01-20T15:26:18;1.50;99.90
22623;DHT22;11478;51.094;7.030;2023-01-20T15:28:47;1.40;99.90
22623;DHT22;11478;51.094;7.030;2023-01-20T15:31:15;1.40;99.90
22623;DHT22;11478;51.094;7.030;2023-01-20T15:33:42;1.40;99.90
22623;DHT22;11478;51.094;7.030;2023-01-20T15:36:30;1.30;99.90
22623;DHT22;11478;51.094;7.030;2023-01-20T15:38:58;1.30;99.90
22623;DHT22;11478;51.094;7.030;2023-01-20T15:41:25;1.40;99.90
22623;DHT22;11478;51.094;7.030;2023-01-20T15:44:03;1.30;99.90
22623;DHT22;11478;51.094;7.030;2023-01-20T15:46:34;1.30;99.90
22623;DHT22;11478;51.094;7.030;2023-01-20T15:49:00;1.30;99.90
22623;DHT22;11478;51.094;7.030;2023-01-20T15:51:28;1.30;99.90
22623;DHT22;11478;51.094;7.030;2023-01-20T15:53:53;1.20;99.90
22623;DHT22;11478;51.094;7.030;2023-01-20T15:56:29;1.20;99.90
22623;DHT22;11478;51.094;7.030;2023-01-20T15:58:56;1.20;99.90
22623;DHT22;11478;51.094;7.030;2023-01-20T16:01:35;1.20;99.90
22623;DHT22;11478;51.094;7.030;2023-01-20T16:04:01;1.30;99.90
22623;DHT22;11478;51.094;7.030;2023-01-20T16:06:41;1.30;99.90
22623;DHT22;11478;51.094;7.030;2023-01-20T16:09:16;1.30;99.90
22623;DHT22;11478;51.094;7.030;2023-01-20T16:11:45;1.30;99.90
22623;DHT22;11478;51.094;7.030;2023-01-20T16:14:26;1.30;99.90
22623;DHT22;11478;51.094;7.030;2023-01-20T16:16:53;1.30;99.90
22623;DHT22;11478;51.094;7.030;2023-01-20T16:19:30;1.30;99.90
22623;DHT22;11478;51.094;7.030;2023-01-20T16:21:59;1.20;99.90
22623;DHT22;11478;51.094;7.030;2023-01-20T16:24:25;1.20;99.90
22623;DHT22;11478;51.094;7.030;2023-01-20T16:26:54;1.20;99.90
22623;DHT22;11478;51.094;7.030;2023-01-20T16:29:20;1.20;99.90
22623;DHT22;11478;51.094;7.030;2023-01-20T16:31:48;1.20;99.90
22623;DHT22;11478;51.094;7.030;2023-01-20T16:34:14;1.20;99.90
22623;DHT22;11478;51.094;7.030;2023-01-20T16:36:42;1.20;99.90
22623;DHT22;11478;51.094;7.030;2023-01-20T16:39:09;1.10;99.90
22623;DHT22;11478;51.094;7.030;2023-01-20T16:41:46;1.10;99.90
22623;DHT22;11478;51.094;7.030;2023-01-20T16:44:13;1.00;99.90
22623;DHT22;11478;51.094;7.030;2023-01-20T16:46:45;1.00;99.90
22623;DHT22;11478;51.094;7.030;2023-01-20T16:49:11;0.90;99.90
22623;DHT22;11478;51.094;7.030;2023-01-20T16:51:51;0.90;99.90
22623;DHT22;11478;51.094;7.030;2023-01-20T16:54:17;0.80;99.90
22623;DHT22;11478;51.094;7.030;2023-01-20T16:56:43;0.70;99.90
22623;DHT22;11478;51.094;7.030;2023-01-20T16:59:09;0.70;99.90
22623;DHT22;11478;51.094;7.030;2023-01-20T17:01:37;0.60;99.90
22623;DHT22;11478;51.094;7.030;2023-01-20T17:04:04;0.50;99.90
22623;DHT22;11478;51.094;7.030;2023-01-20T17:06:33;0.50;99.90
22623;DHT22;11478;51.094;7.030;2023-01-20T17:09:02;0.40;99.90
22623;DHT22;11478;51.094;7.030;2023-01-20T17:14:25;0.30;99.90
22623;DHT22;11478;51.094;7.030;2023-01-20T17:20:13;0.20;99.90
22623;DHT22;11478;51.094;7.030;2023-01-20T17:22:41;0.10;99.90
22623;DHT22;11478;51.094;7.030;2023-01-20T17:25:08;0.10;99.90
22623;DHT22;11478;51.094;7.030;2023-01-20T17:27:36;0.00;99.90
22623;DHT22;11478;51.094;7.030;2023-01-20T17:30:03;0.00;99.90
22623;DHT22;11478;51.094;7.030;2023-01-20T17:32:45;-0.10;99.90
22623;DHT22;11478;51.094;7.030;2023-01-20T17:35:12;-0.20;99.90
22623;DHT22;11478;51.094;7.030;2023-01-20T17:37:39;-0.20;99.90
22623;DHT22;11478;51.094;7.030;2023-01-20T17:40:07;-0.30;99.90
22623;DHT22;11478;51.094;7.030;2023-01-20T17:42:52;-0.40;99.90
22623;DHT22;11478;51.094;7.030;2023-01-20T17:45:17;-0.40;99.90
22623;DHT22;11478;51.094;7.030;2023-01-20T17:47:44;-0.50;99.90
22623;DHT22;11478;51.094;7.030;2023-01-20T17:50:23;-0.50;99.90
22623;DHT22;11478;51.094;7.030;2023-01-20T17:52:53;-0.60;99.90
22623;DHT22;11478;51.094;7.030;2023-01-20T17:55:20;-0.60;99.90
22623;DHT22;11478;51.094;7.030;2023-01-20T17:57:46;-0.70;99.90
22623;DHT22;11478;51.094;7.030;2023-01-20T18:00:18;-0.70;99.90
22623;DHT22;11478;51.094;7.030;2023-01-20T18:02:44;-0.70;99.90
22623;DHT22;11478;51.094;7.030;2023-01-20T18:05:13;-0.70;99.90
22623;DHT22;11478;51.094;7.030;2023-01-20T18:07:40;-0.70;99.90
22623;DHT22;11478;51.094;7.030;2023-01-20T18:10:10;-0.70;99.90
22623;DHT22;11478;51.094;7.030;2023-01-20T18:12:35;-0.70;99.90
22623;DHT22;11478;51.094;7.030;2023-01-20T18:15:10;-0.70;99.90
22623;DHT22;11478;51.094;7.030;2023-01-20T18:17:35;-0.70;99.90
22623;DHT22;11478;51.094;7.030;2023-01-20T18:20:10;-0.70;99.90
22623;DHT22;11478;51.094;7.030;2023-01-20T18:22:36;-0.70;99.90
22623;DHT22;11478;51.094;7.030;2023-01-20T18:25:07;-0.70;99.90
22623;DHT22;11478;51.094;7.030;2023-01-20T18:27:33;-0.70;99.90
22623;DHT22;11478;51.094;7.030;2023-01-20T18:30:01;-0.70;99.90
22623;DHT22;11478;51.094;7.030;2023-01-20T18:32:26;-0.70;99.90
22623;DHT22;11478;51.094;7.030;2023-01-20T18:34:56;-0.70;99.90
22623;DHT22;11478;51.094;7.030;2023-01-20T18:37:22;-0.70;99.90
22623;DHT22;11478;51.094;7.030;2023-01-20T18:40:26;-0.70;99.90
22623;DHT22;11478;51.094;7.030;2023-01-20T18:42:51;-0.80;99.90
22623;DHT22;11478;51.094;7.030;2023-01-20T18:45:19;-0.80;99.90
22623;DHT22;11478;51.094;7.030;2023-01-20T18:47:47;-0.90;99.90
22623;DHT22;11478;51.094;7.030;2023-01-20T18:50:13;-0.90;99.90
22623;DHT22;11478;51.094;7.030;2023-01-20T18:52:40;-0.90;99.90
22623;DHT22;11478;51.094;7.030;2023-01-20T18:55:07;-0.90;99.90
22623;DHT22;11478;51.094;7.030;2023-01-20T18:57:33;-0.90;99.90
22623;DHT22;11478;51.094;7.030;2023-01-20T18:59:59;-0.90;99.90
22623;DHT22;11478;51.094;7.030;2023-01-20T19:02:25;-0.90;99.90
22623;DHT22;11478;51.094;7.030;2023-01-20T19:05:07;-0.90;99.90
22623;DHT22;11478;51.094;7.030;2023-01-20T19:07:35;-1.00;99.90
22623;DHT22;11478;51.094;7.030;2023-01-20T19:10:11;-1.00;99.90
22623;DHT22;11478;51.094;7.030;2023-01-20T19:12:36;-1.00;99.90
22623;DHT22;11478;51.094;7.030;2023-01-20T19:15:06;-1.00;99.90
22623;DHT22;11478;51.094;7.030;2023-01-20T19:17:32;-1.10;99.90
22623;DHT22;11478;51.094;7.030;2023-01-20T19:19:58;-1.10;99.90
22623;DHT22;11478;51.094;7.030;2023-01-20T19:22:28;-1.10;99.90
22623;DHT22;11478;51.094;7.030;2023-01-20T19:24:54;-1.10;99.90
22623;DHT22;11478;51.094;7.030;2023-01-20T19:27:24;-1.10;99.90
22623;DHT22;11478;51.094;7.030;2023-01-20T19:29:50;-1.10;99.90
22623;DHT22;11478;51.094;7.030;2023-01-20T19:32:20;-1.10;99.90
22623;DHT22;11478;51.094;7.030;2023-01-20T19:34:46;-1.10;99.90
22623;DHT22;11478;51.094;7.030;2023-01-20T19:37:16;-1.10;99.90